createdAt,value
2018-02-16T00:00:44.779Z,34.88
2018-02-16T00:03:13.443Z,32.88
2018-02-16T00:05:42.115Z,29.45
2018-02-16T00:08:13.505Z,30.45
2018-02-16T00:10:43.021Z,27.95
2018-02-16T00:13:11.680Z,31.42
2018-02-16T00:15:40.342Z,26.50
2018-02-16T00:18:08.990Z,29.58
2018-02-16T00:20:37.659Z,25.62
2018-02-16T00:23:06.312Z,28.00
2018-02-16T00:25:34.988Z,28.65
2018-02-16T00:28:03.647Z,28.23
2018-02-16T00:30:33.080Z,30.80
2018-02-16T00:33:01.742Z,27.52
2018-02-16T00:35:31.180Z,29.87
2018-02-16T00:38:00.770Z,28.55
2018-02-16T00:40:29.447Z,30.00
2018-02-16T00:42:58.879Z,29.65
2018-02-16T00:45:27.763Z,32.88
2018-02-16T00:47:56.236Z,34.80
2018-02-16T00:50:24.900Z,30.12
2018-02-16T00:52:54.320Z,27.37
2018-02-16T00:55:22.991Z,29.60
2018-02-16T00:57:52.414Z,34.15
2018-02-16T01:00:21.080Z,34.85
2018-02-16T01:02:50.499Z,31.85
2018-02-16T01:05:18.843Z,29.58
2018-02-16T01:07:47.499Z,32.05
2018-02-16T01:10:16.166Z,42.65
2018-02-16T01:12:44.815Z,33.40
2018-02-16T01:15:14.067Z,31.30
2018-02-16T01:17:42.718Z,31.73
2018-02-16T01:20:12.155Z,32.47
2018-02-16T01:22:40.815Z,36.55
2018-02-16T01:25:09.503Z,35.28
2018-02-16T01:27:38.155Z,36.63
2018-02-16T01:30:06.831Z,31.65
2018-02-16T01:32:35.495Z,30.00
2018-02-16T01:35:04.177Z,33.83
2018-02-16T01:37:32.831Z,31.42
2018-02-16T01:40:01.486Z,35.20
2018-02-16T01:42:30.153Z,30.98
2018-02-16T01:44:58.828Z,28.52
2018-02-16T01:47:27.504Z,32.55
2018-02-16T01:50:04.379Z,31.17
2018-02-16T01:52:33.170Z,37.17
2018-02-16T01:55:01.843Z,35.80
2018-02-16T01:57:30.520Z,31.83
2018-02-16T01:59:59.193Z,33.67
2018-02-16T02:02:28.626Z,30.02
2018-02-16T02:04:57.299Z,32.15
2018-02-16T02:07:25.971Z,30.62
2018-02-16T02:09:55.407Z,29.95
2018-02-16T02:12:24.370Z,33.67
2018-02-16T02:14:53.811Z,33.20
2018-02-16T02:17:22.480Z,32.15
2018-02-16T02:19:51.147Z,30.42
2018-02-16T02:22:20.591Z,32.72
2018-02-16T02:24:49.267Z,32.88
2018-02-16T02:27:17.940Z,31.85
2018-02-16T02:29:46.610Z,34.45
2018-02-16T02:32:16.117Z,32.42
2018-02-16T02:34:45.551Z,33.65
2018-02-16T02:37:14.223Z,38.00
2018-02-16T02:39:42.563Z,35.50
2018-02-16T02:42:11.242Z,33.42
2018-02-16T02:44:39.916Z,32.70
2018-02-16T02:47:08.256Z,31.40
2018-02-16T02:49:36.920Z,32.20
2018-02-16T02:52:06.370Z,36.28
2018-02-16T02:54:35.039Z,32.47
2018-02-16T02:57:03.713Z,32.70
2018-02-16T02:59:32.392Z,31.48
2018-02-16T03:02:01.841Z,34.70
2018-02-16T03:04:30.711Z,34.53
2018-02-16T03:06:59.388Z,32.05
2018-02-16T03:09:28.058Z,36.58
2018-02-16T03:11:57.485Z,35.75
2018-02-16T03:14:26.141Z,35.42
2018-02-16T03:16:54.831Z,38.65
2018-02-16T03:19:24.270Z,35.92
2018-02-16T03:21:52.959Z,37.20
2018-02-16T03:24:21.640Z,36.90
2018-02-16T03:26:50.311Z,40.22
2018-02-16T03:29:19.747Z,36.22
2018-02-16T03:31:48.420Z,45.95
2018-02-16T03:34:17.094Z,40.20
2018-02-16T03:36:46.522Z,36.42
2018-02-16T03:39:15.184Z,42.92
2018-02-16T03:41:44.610Z,39.95
2018-02-16T03:44:13.280Z,39.35
2018-02-16T03:46:41.938Z,41.37
2018-02-16T03:49:10.602Z,44.55
2018-02-16T03:51:39.266Z,39.67
2018-02-16T03:54:07.597Z,37.47
2018-02-16T03:56:37.100Z,40.55
2018-02-16T03:59:06.537Z,39.00
2018-02-16T04:01:35.199Z,43.33
2018-02-16T04:04:04.303Z,39.75
2018-02-16T04:06:32.987Z,42.97
2018-02-16T04:09:02.427Z,42.75
2018-02-16T04:11:31.092Z,41.58
2018-02-16T04:13:59.767Z,42.28
2018-02-16T04:16:28.438Z,45.53
2018-02-16T04:18:57.879Z,39.38
2018-02-16T04:21:26.560Z,40.75
2018-02-16T04:23:55.223Z,38.60
2018-02-16T04:26:24.655Z,39.33
2018-02-16T04:28:53.315Z,39.20
2018-02-16T04:31:22.739Z,40.72
2018-02-16T04:33:51.400Z,40.30
2018-02-16T04:36:20.835Z,45.10
2018-02-16T04:38:49.517Z,42.47
2018-02-16T04:41:18.195Z,41.45
2018-02-16T04:43:46.867Z,46.42
2018-02-16T04:46:16.299Z,42.92
2018-02-16T04:48:44.979Z,47.28
2018-02-16T04:51:13.646Z,48.58
2018-02-16T04:53:43.076Z,39.38
2018-02-16T04:56:11.746Z,43.70
2018-02-16T04:58:40.425Z,48.15
2018-02-16T05:01:09.871Z,45.92
2018-02-16T05:03:38.550Z,49.65
2018-02-16T05:06:07.301Z,43.63
2018-02-16T05:08:36.736Z,48.50
2018-02-16T05:11:05.407Z,48.25
2018-02-16T05:13:34.488Z,49.22
2018-02-16T05:16:03.988Z,53.53
2018-02-16T05:18:33.443Z,49.88
2018-02-16T05:21:02.117Z,51.70
2018-02-16T05:23:30.791Z,48.40
2018-02-16T05:25:59.474Z,54.53
2018-02-16T05:28:28.151Z,48.42
2018-02-16T05:30:57.591Z,46.95
2018-02-16T05:33:26.259Z,59.08
2018-02-16T05:35:54.936Z,45.67
2018-02-16T05:38:24.374Z,53.92
2018-02-16T05:40:53.051Z,49.78
2018-02-16T05:43:21.538Z,43.75
2018-02-16T05:45:50.202Z,48.17
2018-02-16T05:48:18.869Z,53.63
2018-02-16T05:50:48.312Z,44.53
2018-02-16T05:53:16.978Z,46.47
2018-02-16T05:55:45.460Z,47.62
2018-02-16T05:58:14.144Z,50.83
2018-02-16T06:00:42.811Z,50.38
2018-02-16T06:03:12.252Z,44.15
2018-02-16T06:05:40.923Z,62.35
2018-02-16T07:45:07.882Z,55.70
2018-02-16T07:47:36.540Z,55.15
2018-02-16T07:50:05.979Z,54.80
2018-02-16T07:52:34.667Z,56.53
2018-02-16T07:55:03.024Z,53.87
2018-02-16T07:57:31.687Z,54.20
2018-02-16T08:00:01.139Z,60.10
2018-02-16T08:02:29.814Z,55.33
2018-02-16T08:04:58.491Z,62.15
2018-02-16T08:07:27.355Z,57.97
2018-02-16T08:09:56.808Z,50.83
2018-02-16T08:12:25.479Z,45.70
2018-02-16T08:14:54.150Z,52.25
2018-02-16T08:17:22.822Z,47.53
2018-02-16T08:19:52.267Z,53.42
2018-02-16T08:22:20.946Z,47.25
2018-02-16T08:24:49.618Z,46.20
2018-02-16T08:27:18.294Z,47.50
2018-02-16T08:29:47.730Z,44.42
2018-02-16T08:32:16.407Z,43.30
2018-02-16T08:34:45.088Z,40.85
2018-02-16T08:37:13.751Z,41.33
2018-02-16T08:39:43.187Z,42.60
2018-02-16T08:42:11.882Z,42.60
2018-02-16T08:44:40.636Z,39.10
2018-02-16T08:47:09.312Z,45.67
2018-02-16T08:49:38.554Z,45.12
2018-02-16T08:52:07.210Z,35.85
2018-02-16T08:54:36.655Z,41.50
2018-02-16T08:57:05.330Z,39.25
2018-02-16T08:59:34.834Z,39.60
2018-02-16T09:02:03.505Z,29.30
2018-02-16T09:04:32.904Z,33.40
2018-02-16T09:07:01.586Z,29.90
2018-02-16T09:09:30.265Z,31.45
2018-02-16T09:11:59.710Z,32.85
2018-02-16T09:14:28.557Z,28.00
2018-02-16T09:16:57.992Z,25.83
2018-02-16T09:19:26.933Z,27.77
2018-02-16T09:21:55.609Z,28.52
2018-02-16T09:24:24.275Z,26.95
2018-02-16T09:26:52.951Z,29.23
2018-02-16T09:29:21.621Z,29.60
2018-02-16T09:31:50.390Z,24.42
2018-02-16T09:34:19.814Z,27.17
2018-02-16T09:36:48.479Z,26.17
2018-02-16T09:39:24.844Z,25.40
2018-02-16T09:41:54.300Z,25.37
2018-02-16T09:44:22.991Z,29.55
2018-02-16T09:46:51.867Z,26.10
2018-02-16T09:49:20.536Z,22.80
2018-02-16T09:51:49.203Z,22.08
2018-02-16T09:54:18.714Z,17.87
2018-02-16T09:56:48.162Z,21.87
2018-02-16T09:59:16.835Z,20.70
2018-02-16T10:01:45.503Z,24.58
2018-02-16T10:04:14.934Z,20.90
2018-02-16T10:06:43.603Z,21.02
2018-02-16T10:09:12.279Z,23.38
2018-02-16T10:11:40.955Z,18.27
2018-02-16T10:14:10.387Z,23.80
2018-02-16T10:16:39.059Z,23.08
2018-02-16T10:19:07.726Z,15.93
2018-02-16T10:21:37.167Z,21.87
2018-02-16T10:24:05.890Z,21.73
2018-02-16T10:26:35.467Z,18.20
2018-02-16T10:29:04.143Z,21.05
2018-02-16T10:31:32.811Z,30.30
2018-02-16T10:34:02.256Z,20.52
2018-02-16T10:36:30.938Z,19.55
2018-02-16T10:38:59.618Z,18.77
2018-02-16T10:41:28.283Z,22.08
2018-02-16T10:43:56.946Z,24.02
2018-02-16T10:46:26.387Z,17.20
2018-02-16T10:48:55.058Z,17.75
2018-02-16T10:51:23.743Z,18.27
2018-02-16T10:53:52.427Z,16.27
2018-02-16T10:56:21.106Z,23.62
2018-02-16T10:58:50.558Z,21.35
2018-02-16T11:01:19.242Z,16.75
2018-02-16T11:03:53.371Z,16.23
2018-02-16T11:06:28.339Z,15.45
2018-02-16T11:09:03.295Z,16.08
2018-02-16T11:11:31.975Z,20.27
2018-02-16T11:14:00.667Z,18.62
2018-02-16T11:16:29.551Z,14.93
2018-02-16T11:18:58.228Z,19.40
2018-02-16T11:21:27.667Z,14.52
2018-02-16T11:23:56.339Z,14.70
2018-02-16T11:26:25.011Z,15.27
2018-02-16T11:28:53.717Z,16.77
2018-02-16T11:31:22.547Z,14.68
2018-02-16T11:33:51.215Z,13.88
2018-02-16T11:36:19.882Z,16.50
2018-02-16T11:38:48.547Z,17.20
2018-02-16T11:41:17.983Z,14.95
2018-02-16T11:43:46.646Z,13.88
2018-02-16T11:46:16.064Z,8.98
2018-02-16T11:48:44.727Z,14.20
2018-02-16T11:51:14.147Z,9.48
2018-02-16T11:53:42.818Z,14.07
2018-02-16T11:56:12.254Z,11.90
2018-02-16T11:58:41.005Z,11.45
2018-02-16T12:01:09.677Z,13.13
2018-02-16T12:03:38.347Z,16.25
2018-02-16T12:06:07.012Z,11.07
2018-02-16T12:08:35.673Z,11.80
2018-02-16T12:11:05.106Z,10.40
2018-02-16T12:13:33.783Z,8.38
2018-02-16T12:16:03.202Z,9.20
2018-02-16T12:18:31.863Z,7.45
2018-02-16T12:21:00.550Z,12.37
2018-02-16T12:23:30.159Z,11.60
2018-02-16T12:25:58.835Z,16.77
2018-02-16T12:28:27.506Z,10.55
2018-02-16T12:30:56.959Z,12.68
2018-02-16T12:33:25.627Z,14.38
2018-02-16T12:35:54.293Z,12.90
2018-02-16T12:38:23.715Z,8.32
2018-02-16T12:40:52.383Z,13.18
2018-02-16T12:43:21.822Z,17.12
2018-02-16T12:45:50.506Z,15.55
2018-02-16T12:48:19.579Z,9.35
2018-02-16T12:50:48.251Z,13.27
2018-02-16T12:53:17.691Z,14.27
2018-02-16T12:55:46.364Z,11.93
2018-02-16T12:58:15.026Z,11.55
2018-02-16T13:00:44.479Z,26.42
2018-02-16T13:03:13.150Z,17.67
2018-02-16T13:05:41.826Z,15.45
2018-02-16T13:08:10.506Z,14.38
2018-02-16T13:10:39.939Z,10.07
2018-02-16T13:13:08.607Z,10.57
2018-02-16T13:15:36.931Z,10.27
2018-02-16T13:18:05.634Z,9.60
2018-02-16T13:20:34.306Z,11.63
2018-02-16T13:23:02.967Z,12.75
2018-02-16T13:25:31.638Z,13.95
2018-02-16T13:28:00.302Z,11.88
2018-02-16T13:30:29.739Z,10.85
2018-02-16T13:32:58.401Z,12.00
2018-02-16T13:35:27.198Z,13.52
2018-02-16T13:37:55.867Z,11.73
2018-02-16T13:40:25.904Z,19.90
2018-02-16T13:42:54.560Z,9.13
2018-02-16T13:45:23.990Z,17.77
2018-02-16T13:47:52.655Z,14.55
2018-02-16T13:50:22.079Z,14.77
2018-02-16T13:52:50.744Z,15.68
2018-02-16T13:55:20.175Z,18.40
2018-02-16T13:57:48.836Z,10.70
2018-02-16T14:00:18.278Z,17.02
2018-02-16T14:02:46.943Z,14.20
2018-02-16T14:05:15.615Z,14.20
2018-02-16T14:07:45.047Z,15.93
2018-02-16T14:10:13.732Z,11.75
2018-02-16T14:12:42.399Z,20.23
2018-02-16T14:15:11.639Z,19.90
2018-02-16T14:17:39.973Z,14.95
2018-02-16T14:20:09.416Z,13.00
2018-02-16T14:22:38.111Z,12.80
2018-02-16T14:25:06.592Z,15.98
2018-02-16T14:27:35.257Z,11.32
2018-02-16T14:30:03.579Z,28.40
2018-02-16T14:32:32.255Z,22.33
2018-02-16T14:35:00.931Z,15.38
2018-02-16T14:37:29.612Z,18.40
2018-02-16T14:39:58.275Z,13.75
2018-02-16T14:42:26.943Z,12.82
2018-02-16T14:44:56.377Z,13.48
2018-02-16T14:47:25.046Z,18.40
2018-02-16T14:49:54.493Z,9.45
2018-02-16T14:52:23.166Z,13.25
2018-02-16T14:54:51.831Z,19.83
2018-02-16T14:57:20.506Z,26.23
2018-02-16T14:59:49.177Z,13.38
2018-02-16T15:02:17.851Z,17.60
2018-02-16T15:04:46.526Z,13.50
2018-02-16T15:07:15.200Z,15.27
2018-02-16T15:09:43.875Z,12.05
2018-02-16T15:12:12.546Z,20.73
2018-02-16T15:14:41.210Z,17.52
2018-02-16T15:17:10.651Z,23.17
2018-02-16T15:19:39.327Z,19.15
2018-02-16T15:22:07.996Z,19.75
2018-02-16T15:24:36.665Z,17.95
2018-02-16T15:27:05.324Z,27.37
2018-02-16T15:29:33.987Z,15.73
2018-02-16T15:32:02.721Z,25.20
2018-02-16T15:34:31.096Z,18.90
2018-02-16T15:36:59.768Z,24.98
2018-02-16T15:39:28.476Z,21.60
2018-02-16T15:41:57.294Z,16.48
2018-02-16T15:44:25.956Z,18.58
2018-02-16T15:46:55.152Z,21.92
2018-02-16T15:49:24.598Z,20.98
2018-02-16T15:51:53.263Z,17.90
2018-02-16T15:54:21.948Z,20.25
2018-02-16T15:56:50.616Z,20.25
2018-02-16T15:59:19.278Z,26.25
2018-02-16T16:01:47.963Z,24.08
2018-02-16T16:04:16.641Z,20.62
2018-02-16T16:06:45.312Z,25.10
2018-02-16T16:09:14.002Z,21.27
2018-02-16T16:11:42.677Z,29.85
2018-02-16T16:14:11.346Z,19.98
2018-02-16T16:16:40.034Z,18.05
2018-02-16T16:19:08.704Z,25.15
2018-02-16T16:21:38.155Z,16.80
2018-02-16T16:24:06.847Z,22.67
2018-02-16T16:26:35.523Z,27.00
2018-02-16T16:29:04.196Z,25.73
2018-02-16T16:31:32.866Z,19.08
2018-02-16T16:34:02.509Z,18.00
2018-02-16T16:36:31.196Z,23.65
2018-02-16T16:38:59.904Z,23.05
2018-02-16T16:41:28.736Z,26.42
2018-02-16T16:43:58.366Z,19.92
2018-02-16T16:46:27.036Z,22.67
2018-02-16T16:48:55.721Z,25.67
2018-02-16T16:51:24.392Z,17.90
2018-02-16T16:53:53.823Z,26.17
2018-02-16T16:56:22.507Z,24.85
2018-02-16T16:58:51.176Z,25.35
2018-02-16T17:01:20.607Z,29.25
2018-02-16T17:03:49.080Z,20.27
2018-02-16T17:06:17.759Z,25.33
2018-02-16T17:08:46.425Z,26.58
2018-02-16T17:11:15.088Z,28.77
2018-02-16T17:13:43.754Z,33.50
2018-02-16T17:16:12.235Z,28.42
2018-02-16T17:18:40.919Z,32.17
2018-02-16T17:21:09.587Z,19.75
2018-02-16T17:23:38.260Z,31.55
2018-02-16T17:26:06.934Z,23.12
2018-02-16T17:28:36.374Z,19.85
2018-02-16T17:31:05.047Z,26.05
2018-02-16T17:33:33.522Z,26.12
2018-02-16T17:36:02.183Z,27.90
2018-02-16T17:38:31.623Z,43.65
2018-02-16T17:41:01.293Z,27.00
2018-02-16T17:43:29.971Z,21.15
2018-02-16T17:45:58.639Z,23.17
2018-02-16T17:48:27.327Z,32.42
2018-02-16T17:50:56.009Z,29.20
2018-02-16T17:53:24.678Z,28.52
2018-02-16T17:55:53.351Z,28.48
2018-02-16T17:58:22.013Z,26.65
2018-02-16T18:00:51.275Z,24.42
2018-02-16T18:03:19.951Z,28.38
2018-02-16T18:05:48.632Z,33.55
2018-02-16T18:08:17.306Z,24.95
2018-02-16T18:10:45.971Z,29.42
2018-02-16T18:13:14.639Z,30.15
2018-02-16T18:15:44.087Z,32.58
2018-02-16T18:18:12.763Z,25.33
2018-02-16T18:20:42.249Z,31.98
2018-02-16T18:23:11.691Z,26.77
2018-02-16T18:25:40.367Z,23.25
2018-02-16T18:28:09.552Z,35.92
2018-02-16T18:30:38.231Z,31.00
2018-02-16T18:33:07.675Z,27.10
2018-02-16T18:35:36.355Z,29.60
2018-02-16T18:38:04.688Z,30.55
2018-02-16T18:40:34.131Z,31.10
2018-02-16T18:43:02.803Z,27.05
2018-02-16T18:45:31.500Z,33.15
2018-02-16T18:48:00.205Z,25.75
2018-02-16T18:50:28.911Z,25.70
2018-02-16T18:52:57.595Z,27.62
2018-02-16T18:55:26.908Z,23.58
2018-02-16T18:57:58.376Z,30.62
2018-02-16T19:00:27.858Z,28.50
2018-02-16T19:02:56.581Z,26.85
2018-02-16T19:05:26.028Z,31.98
2018-02-16T19:07:59.371Z,32.35
2018-02-16T19:10:28.419Z,27.95
2018-02-16T19:12:58.035Z,28.40
2018-02-16T19:15:26.714Z,28.48
2018-02-16T19:17:56.216Z,24.75
2018-02-16T19:20:35.732Z,33.70
2018-02-16T19:23:23.382Z,25.85
2018-02-16T19:25:52.053Z,28.23
2018-02-16T19:28:20.747Z,31.92
2018-02-16T19:30:49.721Z,24.67
2018-02-16T19:33:23.849Z,26.27
2018-02-16T19:35:52.596Z,30.37
2018-02-16T19:38:24.419Z,26.67
2018-02-16T19:40:53.091Z,25.17
2018-02-16T19:43:22.675Z,25.15
2018-02-16T19:45:52.119Z,30.27
2018-02-16T19:48:20.791Z,24.98
2018-02-16T19:50:49.130Z,29.33
2018-02-16T19:53:17.814Z,32.42
2018-02-16T19:55:46.498Z,32.88
2018-02-16T19:58:15.175Z,24.90
2018-02-16T20:00:44.755Z,30.67
2018-02-16T20:03:13.444Z,34.05
2018-02-16T20:05:42.128Z,28.92
2018-02-16T20:08:10.797Z,32.22
2018-02-16T20:10:39.479Z,28.83
2018-02-16T20:13:08.151Z,35.45
2018-02-16T20:15:37.587Z,34.08
2018-02-16T20:18:06.273Z,33.35
2018-02-16T20:20:34.948Z,26.35
2018-02-16T20:23:03.606Z,26.33
2018-02-16T20:25:33.047Z,36.00
2018-02-16T20:28:01.727Z,37.03
2018-02-16T20:30:30.407Z,33.65
2018-02-16T20:32:59.408Z,29.90
2018-02-16T20:35:28.096Z,24.10
2018-02-16T20:37:56.852Z,36.85
2018-02-16T20:40:26.310Z,34.13
2018-02-16T20:42:54.989Z,32.08
2018-02-16T20:45:23.651Z,25.45
2018-02-16T20:47:53.297Z,23.02
2018-02-16T20:50:21.962Z,24.60
2018-02-16T20:52:50.677Z,38.67
2018-02-16T20:55:19.358Z,22.45
2018-02-16T20:57:49.444Z,32.05
2018-02-16T21:00:18.212Z,27.42
2018-02-16T21:02:47.648Z,25.48
2018-02-16T21:05:16.097Z,30.10
2018-02-16T21:07:46.218Z,25.10
2018-02-16T21:10:15.654Z,24.83
2018-02-16T21:12:44.331Z,23.00
2018-02-16T21:15:13.003Z,22.23
2018-02-16T21:17:42.445Z,26.12
2018-02-16T21:20:11.126Z,31.10
2018-02-16T21:22:39.807Z,23.12
2018-02-16T21:25:08.483Z,23.95
2018-02-16T21:27:37.158Z,29.35
2018-02-16T21:30:06.597Z,26.55
2018-02-16T21:32:35.286Z,22.73
2018-02-16T21:35:03.768Z,25.77
2018-02-16T21:37:32.423Z,29.17
2018-02-16T21:40:01.107Z,22.58
2018-02-16T21:42:29.787Z,26.05
2018-02-16T21:44:59.218Z,28.30
2018-02-16T21:47:27.896Z,22.67
2018-02-16T21:49:56.559Z,26.00
2018-02-16T21:52:26.008Z,27.05
2018-02-16T21:54:54.715Z,25.42
2018-02-16T21:57:23.374Z,24.02
2018-02-16T21:59:52.043Z,26.30
2018-02-16T22:02:20.708Z,25.20
2018-02-16T22:04:50.143Z,31.40
2018-02-16T22:07:18.475Z,32.08
2018-02-16T22:09:47.152Z,29.55
2018-02-16T22:12:15.828Z,28.85
2018-02-16T22:14:44.517Z,25.95
2018-02-16T22:17:13.207Z,36.47
2018-02-16T22:19:41.694Z,29.08
2018-02-16T22:22:10.359Z,23.58
2018-02-16T22:24:39.349Z,32.50
2018-02-16T22:27:08.011Z,25.73
2018-02-16T22:29:36.683Z,25.67
2018-02-16T22:32:05.024Z,29.70
2018-02-16T22:34:33.695Z,35.70
2018-02-16T22:37:02.363Z,29.15
2018-02-16T22:39:31.052Z,28.87
2018-02-16T22:41:59.722Z,30.27
2018-02-16T22:44:28.403Z,38.38
2018-02-16T22:46:57.076Z,26.50
2018-02-16T22:49:26.515Z,22.00
2018-02-16T22:51:55.192Z,28.83
2018-02-16T22:54:23.679Z,25.45
2018-02-16T22:56:52.342Z,25.60
2018-02-16T22:59:21.791Z,21.90
2018-02-16T23:01:50.469Z,33.08
2018-02-16T23:04:19.147Z,27.95
2018-02-16T23:06:47.814Z,23.67
2018-02-16T23:09:16.479Z,27.45
2018-02-16T23:11:45.915Z,29.48
2018-02-16T23:14:14.588Z,30.23
2018-02-16T23:16:44.419Z,27.48
2018-02-16T23:19:13.092Z,26.12
2018-02-16T23:21:42.523Z,25.90
2018-02-16T23:24:11.214Z,28.30
2018-02-16T23:26:39.890Z,27.30
2018-02-16T23:29:08.587Z,23.87
2018-02-16T23:31:37.295Z,25.58
2018-02-16T23:34:06.090Z,30.85
2018-02-16T23:36:34.775Z,26.00
2018-02-16T23:39:04.311Z,30.62
2018-02-16T23:41:33.752Z,29.08
2018-02-16T23:44:02.413Z,28.62
2018-02-16T23:46:31.083Z,23.08
2018-02-16T23:48:59.746Z,24.90
2018-02-16T23:51:28.421Z,21.87
2018-02-16T23:53:57.099Z,28.92
2018-02-16T23:56:26.564Z,24.12
2018-02-16T23:58:55.244Z,21.67
